createdAt,value
2023-04-27T00:01:13.749Z,100786.84
2023-04-27T00:04:16.713Z,100799.09
2023-04-27T00:07:18.456Z,100779.66
2023-04-27T00:10:19.888Z,100796.66
2023-04-27T00:13:21.410Z,100796.03
2023-04-27T00:16:23.021Z,100799.06
2023-04-27T00:19:24.674Z,100804.13
2023-04-27T00:22:26.465Z,100791.59
2023-04-27T00:25:28.095Z,100803.03
2023-04-27T00:28:29.702Z,100797.78
2023-04-27T00:31:31.265Z,100787.50
2023-04-27T00:34:32.839Z,100796.94
2023-04-27T00:37:34.365Z,100769.03
2023-04-27T00:40:36.039Z,100795.03
2023-04-27T00:43:45.696Z,100794.16
2023-04-27T00:46:47.393Z,100785.06
2023-04-27T00:49:49.539Z,100793.81
2023-04-27T00:52:51.193Z,100795.88
2023-04-27T00:55:52.755Z,100791.66
2023-04-27T00:58:54.241Z,100798.00
2023-04-27T01:01:56.389Z,100799.91
2023-04-27T01:04:58.283Z,100799.19
2023-04-27T01:07:59.864Z,100801.38
2023-04-27T01:11:01.356Z,100797.34
2023-04-27T01:14:06.987Z,100806.13
2023-04-27T01:17:08.620Z,100793.91
2023-04-27T01:20:10.798Z,100807.63
2023-04-27T01:23:17.337Z,100807.13
2023-04-27T01:26:19.206Z,100809.56
2023-04-27T01:29:21.434Z,100807.88
2023-04-27T01:32:23.054Z,100811.31
2023-04-27T01:35:25.703Z,100802.00
2023-04-27T01:38:29.334Z,100823.53
2023-04-27T01:41:31.440Z,100805.38
2023-04-27T01:44:33.289Z,100820.25
2023-04-27T01:47:34.946Z,100819.66
2023-04-27T01:50:36.540Z,100822.84
2023-04-27T01:53:37.950Z,100825.31
2023-04-27T01:56:39.546Z,100808.81
2023-04-27T01:59:41.108Z,100819.69
2023-04-27T02:02:42.639Z,100828.59
2023-04-27T02:05:44.515Z,100825.47
2023-04-27T02:08:46.179Z,100823.81
2023-04-27T02:11:47.743Z,100821.75
2023-04-27T02:14:49.164Z,100833.03
2023-04-27T02:17:50.814Z,100817.66
2023-04-27T02:20:52.670Z,100840.03
2023-04-27T02:23:54.229Z,100835.13
2023-04-27T02:26:55.762Z,100842.13
2023-04-27T02:29:57.313Z,100827.97
2023-04-27T02:33:00.891Z,100833.03
2023-04-27T02:36:02.524Z,100830.72
2023-04-27T02:39:04.001Z,100836.09
2023-04-27T02:42:05.653Z,100839.09
2023-04-27T02:45:08.155Z,100820.75
2023-04-27T02:48:09.799Z,100832.84
2023-04-27T02:51:11.437Z,100846.66
2023-04-27T02:54:12.898Z,100845.81
2023-04-27T02:57:14.490Z,100851.78
2023-04-27T03:00:16.087Z,100858.38
2023-04-27T03:03:17.841Z,100849.50
2023-04-27T03:06:19.551Z,100861.38
2023-04-27T03:09:21.200Z,100857.59
2023-04-27T03:12:22.777Z,100840.13
2023-04-27T03:15:24.192Z,100861.50
2023-04-27T03:18:25.820Z,100864.00
2023-04-27T03:21:27.425Z,100868.16
2023-04-27T03:24:29.489Z,100858.88
2023-04-27T03:27:31.246Z,100855.44
2023-04-27T03:30:32.809Z,100869.47
2023-04-27T03:33:34.833Z,100879.13
2023-04-27T03:36:36.624Z,100877.22
2023-04-27T03:39:38.332Z,100888.19
2023-04-27T03:42:40.007Z,100880.84
2023-04-27T03:45:41.732Z,100881.53
2023-04-27T03:48:44.024Z,100880.22
2023-04-27T03:51:45.646Z,100883.81
2023-04-27T03:54:47.075Z,100901.84
2023-04-27T03:57:48.977Z,100876.78
2023-04-27T04:00:50.679Z,100895.41
2023-04-27T04:03:52.403Z,100894.00
2023-04-27T04:06:54.077Z,100896.91
2023-04-27T04:09:55.537Z,100896.56
2023-04-27T04:12:57.157Z,100899.84
2023-04-27T04:16:06.403Z,100908.13
2023-04-27T04:19:08.576Z,100908.94
2023-04-27T04:22:10.284Z,100909.63
2023-04-27T04:25:12.960Z,100909.41
2023-04-27T04:28:14.517Z,100908.66
2023-04-27T04:31:18.247Z,100918.94
2023-04-27T04:34:20.569Z,100916.69
2023-04-27T04:37:22.984Z,100922.16
2023-04-27T04:40:24.670Z,100920.19
2023-04-27T04:43:26.827Z,100932.72
2023-04-27T04:46:28.629Z,100923.41
2023-04-27T04:49:30.433Z,100923.38
2023-04-27T04:52:32.030Z,100926.59
2023-04-27T04:55:33.798Z,100927.09
2023-04-27T04:58:35.599Z,100939.09
2023-04-27T05:01:37.193Z,100938.44
2023-04-27T05:04:38.980Z,100940.41
2023-04-27T05:07:40.631Z,100936.66
2023-04-27T05:10:42.209Z,100929.81
2023-04-27T05:13:43.838Z,100957.00
2023-04-27T05:16:46.382Z,100960.72
2023-04-27T05:19:47.954Z,100962.94
2023-04-27T05:22:49.515Z,100961.72
2023-04-27T05:25:50.975Z,100978.81
2023-04-27T05:28:52.929Z,100981.56
2023-04-27T05:31:54.657Z,100978.81
2023-04-27T05:34:56.311Z,100978.06
2023-04-27T05:37:58.146Z,100971.22
2023-04-27T05:40:59.954Z,100977.53
2023-04-27T05:44:01.509Z,100981.59
2023-04-27T05:47:03.177Z,100985.06
2023-04-27T05:50:05.121Z,100990.31
2023-04-27T05:53:07.086Z,100978.28
2023-04-27T05:56:11.707Z,100988.13
2023-04-27T05:59:13.695Z,100991.28
2023-04-27T06:02:15.517Z,100986.03
2023-04-27T06:05:17.645Z,100983.00
2023-04-27T06:08:19.254Z,100992.81
2023-04-27T06:11:21.224Z,100998.47
2023-04-27T06:14:22.793Z,100986.88
2023-04-27T06:17:24.375Z,100991.94
2023-04-27T06:20:26.369Z,101003.09
2023-04-27T06:23:28.013Z,101005.88
2023-04-27T06:26:29.666Z,101007.00
2023-04-27T06:29:31.612Z,101010.94
2023-04-27T06:32:33.257Z,101020.34
2023-04-27T06:35:34.886Z,101028.44
2023-04-27T06:38:36.436Z,101028.13
2023-04-27T06:41:37.996Z,101030.34
2023-04-27T06:44:39.730Z,101008.56
2023-04-27T06:47:41.390Z,101018.28
2023-04-27T06:50:43.931Z,100998.34
2023-04-27T06:53:45.657Z,101020.75
2023-04-27T06:56:47.286Z,101018.38
2023-04-27T06:59:48.873Z,101016.78
2023-04-27T07:02:51.480Z,101004.16
2023-04-27T07:05:53.262Z,101016.09
2023-04-27T07:08:55.260Z,100996.53
2023-04-27T07:11:58.391Z,101010.72
2023-04-27T07:14:59.984Z,101016.56
2023-04-27T07:18:01.692Z,101016.66
2023-04-27T07:21:03.447Z,101017.06
2023-04-27T07:24:05.254Z,101011.81
2023-04-27T07:27:06.933Z,101018.88
2023-04-27T07:30:09.419Z,101015.06
2023-04-27T07:33:11.223Z,101006.19
2023-04-27T07:36:12.856Z,101017.47
2023-04-27T07:39:15.186Z,101011.50
2023-04-27T07:42:16.988Z,101020.63
2023-04-27T07:45:18.608Z,101004.31
2023-04-27T07:48:20.235Z,101016.47
2023-04-27T07:51:21.943Z,101024.88
2023-04-27T07:54:23.532Z,101019.66
2023-04-27T07:57:25.200Z,101025.22
2023-04-27T08:00:27.229Z,101019.31
2023-04-27T08:03:29.041Z,101026.19
2023-04-27T08:06:31.210Z,101025.69
2023-04-27T08:09:33.027Z,101029.19
2023-04-27T08:12:35.130Z,101026.88
2023-04-27T08:15:37.391Z,101029.38
2023-04-27T08:18:38.979Z,101018.22
2023-04-27T08:21:40.793Z,101023.13
2023-04-27T08:24:42.353Z,101012.28
2023-04-27T08:27:43.999Z,101019.31
2023-04-27T08:30:45.930Z,101024.44
2023-04-27T08:33:47.578Z,101024.09
2023-04-27T08:36:49.153Z,101006.84
2023-04-27T08:39:52.227Z,101028.97
2023-04-27T08:42:56.281Z,101027.00
2023-04-27T08:45:57.890Z,101012.88
2023-04-27T08:48:59.494Z,101021.00
2023-04-27T08:52:01.971Z,101015.31
2023-04-27T08:55:04.911Z,101023.06
2023-04-27T08:58:06.488Z,101016.13
2023-04-27T09:01:08.372Z,101004.53
2023-04-27T09:04:11.881Z,101009.41
2023-04-27T09:07:17.797Z,101005.88
2023-04-27T09:10:19.550Z,100988.16
2023-04-27T09:13:21.687Z,100993.63
2023-04-27T09:16:25.240Z,100992.88
2023-04-27T09:19:31.904Z,100998.38
2023-04-27T09:22:42.867Z,101000.22
2023-04-27T09:25:44.462Z,100984.34
2023-04-27T09:28:48.962Z,100977.38
2023-04-27T09:31:50.620Z,100985.50
2023-04-27T09:34:52.238Z,100987.47
2023-04-27T09:37:54.974Z,100979.22
2023-04-27T09:40:57.142Z,100987.91
2023-04-27T09:43:59.992Z,100991.94
2023-04-27T09:47:02.509Z,100980.28
2023-04-27T09:50:06.247Z,100979.41
2023-04-27T09:53:12.936Z,100969.22
2023-04-27T09:56:42.398Z,100973.25
2023-04-27T09:59:53.623Z,100967.38
2023-04-27T10:03:09.594Z,100964.66
2023-04-27T10:06:48.633Z,100960.31
2023-04-27T10:09:53.593Z,100950.31
2023-04-27T10:13:01.721Z,100944.47
2023-04-27T10:16:16.875Z,100958.97
2023-04-27T10:19:20.556Z,100959.31
2023-04-27T10:22:23.862Z,100944.94
2023-04-27T10:25:28.676Z,100948.78
2023-04-27T10:28:38.594Z,100925.22
2023-04-27T10:31:48.285Z,100937.63
2023-04-27T10:35:04.113Z,100945.75
2023-04-27T10:38:08.567Z,100949.25
2023-04-27T10:41:14.804Z,100951.28
2023-04-27T10:44:28.765Z,100939.91
2023-04-27T10:47:42.684Z,100939.44
2023-04-27T10:50:44.944Z,100938.13
2023-04-27T10:53:52.554Z,100952.72
2023-04-27T10:56:55.295Z,100926.47
2023-04-27T10:59:56.873Z,100941.19
2023-04-27T11:03:12.786Z,100943.50
2023-04-27T11:06:14.489Z,100950.50
2023-04-27T11:09:27.362Z,100936.13
2023-04-27T11:12:28.809Z,100953.75
2023-04-27T11:15:30.486Z,100928.41
2023-04-27T11:18:33.672Z,100943.09
2023-04-27T11:21:35.531Z,100930.69
2023-04-27T11:24:37.349Z,100939.44
2023-04-27T11:27:41.000Z,100939.25
2023-04-27T11:30:42.551Z,100946.66
2023-04-27T11:33:49.265Z,100938.88
2023-04-27T11:37:17.474Z,100939.97
2023-04-27T11:40:20.401Z,100936.47
2023-04-27T11:43:26.193Z,100931.63
2023-04-27T11:46:27.809Z,100926.63
2023-04-27T11:49:29.473Z,100945.50
2023-04-27T11:52:36.212Z,100937.25
2023-04-27T11:55:38.590Z,100926.28
2023-04-27T11:58:40.432Z,100914.88
2023-04-27T12:01:42.037Z,100916.38
2023-04-27T12:04:43.876Z,100921.91
2023-04-27T12:07:45.563Z,100919.41
2023-04-27T12:10:47.642Z,100922.28
2023-04-27T12:13:49.169Z,100908.88
2023-04-27T12:16:51.325Z,100918.47
2023-04-27T12:19:53.004Z,100929.94
2023-04-27T12:22:54.838Z,100935.78
2023-04-27T12:25:56.603Z,100929.31
2023-04-27T12:28:58.219Z,100921.97
2023-04-27T12:32:00.264Z,100924.31
2023-04-27T12:35:01.907Z,100905.38
2023-04-27T12:38:03.589Z,100914.16
2023-04-27T12:41:05.188Z,100892.34
2023-04-27T12:44:06.746Z,100914.16
2023-04-27T12:47:08.305Z,100912.84
2023-04-27T12:50:10.363Z,100926.75
2023-04-27T12:53:12.254Z,100919.00
2023-04-27T12:56:13.926Z,100896.47
2023-04-27T12:59:17.070Z,100914.16
2023-04-27T13:02:18.794Z,100920.44
2023-04-27T13:05:22.082Z,100900.31
2023-04-27T13:08:23.678Z,100908.25
2023-04-27T13:11:25.986Z,100925.66
2023-04-27T13:14:28.656Z,100906.69
2023-04-27T13:17:30.681Z,100910.72
2023-04-27T13:20:32.864Z,100915.97
2023-04-27T13:23:34.934Z,100909.25
2023-04-27T13:26:36.577Z,100914.56
2023-04-27T13:29:38.364Z,100917.44
2023-04-27T13:32:39.987Z,100918.38
2023-04-27T13:35:42.216Z,100906.44
2023-04-27T13:38:43.827Z,100919.06
2023-04-27T13:41:46.108Z,100910.94
2023-04-27T13:44:47.627Z,100894.97
2023-04-27T13:47:49.191Z,100904.44
2023-04-27T13:50:51.281Z,100909.53
2023-04-27T13:53:52.814Z,100915.50
2023-04-27T13:56:54.418Z,100901.00
2023-04-27T13:59:56.044Z,100901.59
2023-04-27T14:02:57.765Z,100918.31
2023-04-27T14:05:59.456Z,100921.09
2023-04-27T14:09:01.182Z,100910.44
2023-04-27T14:12:02.875Z,100918.13
2023-04-27T14:15:04.927Z,100920.31
2023-04-27T14:18:08.050Z,100900.88
2023-04-27T14:21:09.765Z,100921.84
2023-04-27T14:24:11.312Z,100913.63
2023-04-27T14:27:12.877Z,100904.25
2023-04-27T14:30:15.499Z,100909.44
2023-04-27T14:33:17.207Z,100912.84
2023-04-27T14:36:18.816Z,100912.09
2023-04-27T14:39:21.507Z,100902.06
2023-04-27T14:42:23.222Z,100927.38
2023-04-27T14:45:29.006Z,100912.34
2023-04-27T14:48:35.380Z,100902.00
2023-04-27T14:51:36.960Z,100915.22
2023-04-27T14:54:38.825Z,100911.91
2023-04-27T14:57:40.554Z,100919.69
2023-04-27T15:00:42.222Z,100929.22
2023-04-27T15:03:44.033Z,100918.22
2023-04-27T15:06:45.936Z,100912.09
2023-04-27T15:09:47.490Z,100919.94
2023-04-27T15:12:49.070Z,100917.13
2023-04-27T15:15:58.597Z,100916.38
2023-04-27T15:19:00.476Z,100914.00
2023-04-27T15:22:02.036Z,100930.41
2023-04-27T15:25:03.832Z,100931.09
2023-04-27T15:28:05.555Z,100920.72
2023-04-27T15:31:07.330Z,100914.31
2023-04-27T15:34:08.952Z,100893.06
2023-04-27T15:37:10.674Z,100916.13
2023-04-27T15:40:12.460Z,100916.38
2023-04-27T15:43:15.060Z,100913.47
2023-04-27T15:46:18.208Z,100923.06
2023-04-27T15:49:20.107Z,100918.53
2023-04-27T15:52:21.664Z,100913.91
2023-04-27T15:55:23.392Z,100910.81
2023-04-27T15:58:24.973Z,100907.06
2023-04-27T16:01:26.778Z,100914.88
2023-04-27T16:04:28.545Z,100915.41
2023-04-27T16:07:32.036Z,100915.69
2023-04-27T16:10:33.604Z,100915.03
2023-04-27T16:13:35.182Z,100911.06
2023-04-27T16:16:36.960Z,100917.28
2023-04-27T16:19:38.575Z,100905.41
2023-04-27T16:22:40.244Z,100925.94
2023-04-27T16:25:41.969Z,100924.31
2023-04-27T16:28:43.613Z,100922.59
2023-04-27T16:31:45.509Z,100929.78
2023-04-27T16:34:47.578Z,100915.59
2023-04-27T16:37:50.295Z,100927.75
2023-04-27T16:40:52.712Z,100907.72
2023-04-27T16:43:54.296Z,100920.38
2023-04-27T16:46:55.854Z,100921.50
2023-04-27T16:49:58.119Z,100933.69
2023-04-27T16:53:11.662Z,100937.22
2023-04-27T16:56:14.229Z,100928.66
2023-04-27T16:59:17.187Z,100944.03
2023-04-27T17:02:25.144Z,100941.19
2023-04-27T17:05:27.378Z,100929.81
2023-04-27T17:08:29.104Z,100946.19
2023-04-27T17:11:30.716Z,100945.81
2023-04-27T17:14:32.320Z,100940.53
2023-04-27T17:17:34.853Z,100960.63
2023-04-27T17:20:36.763Z,100959.66
2023-04-27T17:23:41.342Z,100954.94
2023-04-27T17:26:42.893Z,100957.09
2023-04-27T17:29:44.527Z,100939.53
2023-04-27T17:32:46.377Z,100965.44
2023-04-27T17:35:48.250Z,100972.94
2023-04-27T17:38:49.892Z,100979.38
2023-04-27T17:41:51.713Z,100962.31
2023-04-27T17:44:53.338Z,100989.72
2023-04-27T17:47:55.047Z,100988.78
2023-04-27T17:50:56.593Z,100982.69
2023-04-27T17:53:58.172Z,100979.31
2023-04-27T17:56:59.763Z,100983.28
2023-04-27T18:00:01.652Z,100996.19
2023-04-27T18:03:03.361Z,101000.22
2023-04-27T18:06:05.250Z,100995.22
2023-04-27T18:09:06.888Z,100993.69
2023-04-27T18:12:11.134Z,100999.22
2023-04-27T18:15:12.939Z,100991.06
2023-04-27T18:18:19.056Z,101007.25
2023-04-27T18:21:20.819Z,100998.25
2023-04-27T18:24:22.506Z,100980.50
2023-04-27T18:27:24.109Z,101004.47
2023-04-27T18:30:25.877Z,101016.69
2023-04-27T18:33:27.636Z,101010.44
2023-04-27T18:36:29.281Z,101007.91
2023-04-27T18:39:30.940Z,101020.34
2023-04-27T18:42:32.537Z,101025.59
2023-04-27T18:45:34.402Z,101022.25
2023-04-27T18:48:36.125Z,101039.63
2023-04-27T18:51:37.830Z,101046.00
2023-04-27T18:54:39.486Z,101022.94
2023-04-27T18:57:41.098Z,101042.06
2023-04-27T19:00:42.738Z,101051.75
2023-04-27T19:03:45.018Z,101039.34
2023-04-27T19:06:47.587Z,101051.25
2023-04-27T19:09:49.357Z,101037.59
2023-04-27T19:12:51.330Z,101057.47
2023-04-27T19:15:52.922Z,101066.09
2023-04-27T19:18:54.511Z,101066.75
2023-04-27T19:21:58.294Z,101066.78
2023-04-27T19:25:00.650Z,101061.75
2023-04-27T19:28:02.270Z,101071.88
2023-04-27T19:31:03.902Z,101073.75
2023-04-27T19:34:05.620Z,101067.59
2023-04-27T19:37:07.187Z,101068.22
2023-04-27T19:40:09.517Z,101089.75
2023-04-27T19:43:11.982Z,101080.72
2023-04-27T19:46:13.657Z,101085.25
2023-04-27T19:49:15.961Z,101074.28
2023-04-27T19:52:17.527Z,101083.34
2023-04-27T19:55:19.112Z,101071.13
2023-04-27T19:58:20.676Z,101077.41
2023-04-27T20:01:22.273Z,101081.78
2023-04-27T20:04:24.164Z,101081.13
2023-04-27T20:07:26.177Z,101078.91
2023-04-27T20:10:27.777Z,101076.00
2023-04-27T20:13:29.338Z,101059.94
2023-04-27T20:16:31.367Z,101086.22
2023-04-27T20:19:33.982Z,101054.03
2023-04-27T20:22:35.831Z,101085.47
2023-04-27T20:25:37.502Z,101076.50
2023-04-27T20:28:39.099Z,101085.22
2023-04-27T20:31:41.189Z,101086.56
2023-04-27T20:34:43.216Z,101069.38
2023-04-27T20:37:44.799Z,101088.06
2023-04-27T20:40:47.167Z,101086.78
2023-04-27T20:43:48.764Z,101066.06
2023-04-27T20:46:50.394Z,101066.09
2023-04-27T20:49:53.463Z,101080.16
2023-04-27T20:52:55.042Z,101061.75
2023-04-27T20:55:57.112Z,101089.72
2023-04-27T20:58:59.302Z,101075.72
2023-04-27T21:02:00.886Z,101086.91
2023-04-27T21:05:02.526Z,101085.38
2023-04-27T21:08:04.221Z,101083.75
2023-04-27T21:11:06.548Z,101089.91
2023-04-27T21:14:08.284Z,101086.22
2023-04-27T21:17:10.302Z,101090.13
2023-04-27T21:20:12.439Z,101099.38
2023-04-27T21:23:14.883Z,101074.63
2023-04-27T21:26:16.515Z,101106.16
2023-04-27T21:29:18.177Z,101091.44
2023-04-27T21:32:19.785Z,101109.28
2023-04-27T21:35:21.525Z,101105.31
2023-04-27T21:38:23.104Z,101107.56
2023-04-27T21:41:24.798Z,101109.50
2023-04-27T21:44:26.344Z,101105.47
2023-04-27T21:47:28.151Z,101105.81
2023-04-27T21:50:29.796Z,101110.03
2023-04-27T21:53:31.523Z,101102.34
2023-04-27T21:56:33.062Z,101110.44
2023-04-27T21:59:34.569Z,101121.94
2023-04-27T22:02:36.192Z,101112.81
2023-04-27T22:05:37.790Z,101126.09
2023-04-27T22:08:39.390Z,101134.03
2023-04-27T22:11:41.267Z,101133.41
2023-04-27T22:14:42.923Z,101129.41
2023-04-27T22:17:44.958Z,101134.59
2023-04-27T22:20:47.346Z,101130.28
2023-04-27T22:23:49.002Z,101133.19
2023-04-27T22:26:50.845Z,101127.53
2023-04-27T22:29:52.486Z,101131.34
2023-04-27T22:32:54.170Z,101113.47
2023-04-27T22:35:55.901Z,101129.66
2023-04-27T22:38:57.635Z,101146.69
2023-04-27T22:41:59.229Z,101133.81
2023-04-27T22:45:01.054Z,101140.28
2023-04-27T22:48:04.106Z,101148.31
2023-04-27T22:51:09.993Z,101144.97
2023-04-27T22:54:11.675Z,101151.34
2023-04-27T22:57:13.263Z,101138.84
2023-04-27T23:00:15.274Z,101146.00
2023-04-27T23:03:17.090Z,101159.41
2023-04-27T23:06:18.871Z,101153.72
2023-04-27T23:09:21.145Z,101159.59
2023-04-27T23:12:22.879Z,101149.13
2023-04-27T23:15:24.931Z,101155.78
2023-04-27T23:18:26.487Z,101153.50
2023-04-27T23:21:28.387Z,101150.31
2023-04-27T23:24:30.001Z,101134.78
2023-04-27T23:27:31.710Z,101133.00
2023-04-27T23:30:34.288Z,101149.75
2023-04-27T23:33:35.953Z,101145.00
2023-04-27T23:36:37.516Z,101145.66
2023-04-27T23:39:39.143Z,101141.94
2023-04-27T23:42:40.755Z,101148.38
2023-04-27T23:45:42.392Z,101129.38
2023-04-27T23:48:44.039Z,101148.03
2023-04-27T23:51:45.788Z,101150.72
2023-04-27T23:54:47.345Z,101139.91
2023-04-27T23:57:51.009Z,101145.72
